createdAt,value
2022-12-11T00:00:06.411Z,95209.16
2022-12-11T00:02:33.032Z,95212.84
2022-12-11T00:04:59.664Z,95214.69
2022-12-11T00:07:26.308Z,95207.03
2022-12-11T00:09:52.917Z,95201.47
2022-12-11T00:12:19.546Z,95202.81
2022-12-11T00:14:46.127Z,95205.44
2022-12-11T00:17:12.753Z,95196.97
2022-12-11T00:19:39.377Z,95191.16
2022-12-11T00:22:06.042Z,95200.44
2022-12-11T00:24:32.712Z,95191.66
2022-12-11T00:26:59.501Z,95194.31
2022-12-11T00:29:26.107Z,95188.75
2022-12-11T00:31:52.735Z,95190.06
2022-12-11T00:34:19.341Z,95196.94
2022-12-11T00:36:45.986Z,95197.97
2022-12-11T00:39:12.778Z,95198.00
2022-12-11T00:41:39.369Z,95196.94
2022-12-11T00:44:06.140Z,95185.84
2022-12-11T00:46:32.832Z,95193.28
2022-12-11T00:48:59.451Z,95198.06
2022-12-11T00:51:26.249Z,95202.81
2022-12-11T00:53:52.895Z,95209.69
2022-12-11T00:56:22.568Z,95211.53
2022-12-11T00:58:49.538Z,95214.41
2022-12-11T01:01:22.492Z,95222.91
2022-12-11T01:03:49.396Z,95219.66
2022-12-11T01:06:18.852Z,95226.47
2022-12-11T01:08:46.257Z,95229.66
2022-12-11T01:11:15.569Z,95236.84
2022-12-11T01:13:43.295Z,95234.63
2022-12-11T01:16:14.052Z,95229.63
2022-12-11T01:18:41.120Z,95232.72
2022-12-11T01:21:13.445Z,95230.63
2022-12-11T01:23:40.633Z,95229.56
2022-12-11T01:26:15.016Z,95241.22
2022-12-11T01:28:42.349Z,95238.50
2022-12-11T01:31:13.844Z,95239.25
2022-12-11T01:33:41.421Z,95245.34
2022-12-11T01:36:19.738Z,95242.41
2022-12-11T01:38:48.056Z,95245.84
2022-12-11T01:41:15.394Z,95245.06
2022-12-11T01:44:03.615Z,95255.41
2022-12-11T01:46:32.448Z,95247.53
2022-12-11T01:49:00.909Z,95243.72
2022-12-11T01:51:31.438Z,95246.03
2022-12-11T01:54:03.667Z,95251.63
2022-12-11T01:56:32.966Z,95244.22
2022-12-11T01:59:07.137Z,95249.78
2022-12-11T02:01:39.775Z,95256.59
2022-12-11T02:04:08.698Z,95247.63
2022-12-11T02:06:44.814Z,95245.53
2022-12-11T02:09:14.890Z,95249.91
2022-12-11T02:11:53.307Z,95248.09
2022-12-11T02:14:34.981Z,95239.69
2022-12-11T02:17:10.268Z,95248.22
2022-12-11T02:20:10.713Z,95247.53
2022-12-11T02:22:37.477Z,95250.75
2022-12-11T02:25:19.074Z,95255.66
2022-12-11T02:27:56.734Z,95253.25
2022-12-11T02:30:24.838Z,95257.38
2022-12-11T02:32:55.772Z,95260.44
2022-12-11T02:35:28.374Z,95257.59
2022-12-11T02:37:59.685Z,95260.91
2022-12-11T02:40:30.143Z,95252.16
2022-12-11T02:43:00.110Z,95259.53
2022-12-11T02:45:29.014Z,95256.16
2022-12-11T02:47:58.888Z,95258.03
2022-12-11T02:50:27.067Z,95250.25
2022-12-11T02:52:56.940Z,95248.97
2022-12-11T02:55:27.264Z,95249.53
2022-12-11T02:58:03.893Z,95247.09
2022-12-11T03:00:30.723Z,95250.06
2022-12-11T03:02:58.041Z,95254.03
2022-12-11T03:05:24.811Z,95254.28
2022-12-11T03:07:51.486Z,95259.44
2022-12-11T03:10:19.921Z,95258.19
2022-12-11T03:12:53.377Z,95261.88
2022-12-11T03:15:24.044Z,95258.06
2022-12-11T03:17:59.682Z,95262.22
2022-12-11T03:20:38.948Z,95264.81
2022-12-11T03:23:28.546Z,95263.81
2022-12-11T03:26:10.413Z,95255.34
2022-12-11T03:28:45.638Z,95261.72
2022-12-11T03:31:37.781Z,95264.34
2022-12-11T03:34:13.598Z,95261.66
2022-12-11T03:36:40.962Z,95268.88
2022-12-11T03:39:12.685Z,95264.50
2022-12-11T03:41:41.160Z,95260.72
2022-12-11T03:44:09.194Z,95256.22
2022-12-11T03:46:39.502Z,95257.44
2022-12-11T03:49:09.532Z,95256.94
2022-12-11T03:51:36.817Z,95251.16
2022-12-11T03:54:03.691Z,95252.75
2022-12-11T03:56:34.293Z,95256.97
2022-12-11T03:59:00.862Z,95258.22
2022-12-11T04:01:27.647Z,95256.91
2022-12-11T04:03:54.332Z,95257.66
2022-12-11T04:06:20.981Z,95262.31
2022-12-11T04:08:47.598Z,95255.41
2022-12-11T04:11:32.713Z,95256.44
2022-12-11T04:14:25.214Z,95259.09
2022-12-11T04:16:51.894Z,95261.72
2022-12-11T04:19:37.958Z,95266.81
2022-12-11T04:22:23.387Z,95269.16
2022-12-11T04:24:50.379Z,95270.59
2022-12-11T04:27:38.501Z,95268.47
2022-12-11T04:30:09.545Z,95263.72
2022-12-11T04:32:36.154Z,95264.59
2022-12-11T04:35:02.984Z,95265.53
2022-12-11T04:37:30.121Z,95273.06
2022-12-11T04:39:56.757Z,95277.03
2022-12-11T04:42:23.410Z,95278.00
2022-12-11T04:44:50.002Z,95277.16
2022-12-11T04:47:16.954Z,95276.78
2022-12-11T04:49:43.565Z,95269.16
2022-12-11T04:52:10.202Z,95275.78
2022-12-11T04:54:36.792Z,95271.38
2022-12-11T04:57:03.439Z,95272.22
2022-12-11T04:59:31.467Z,95266.94
2022-12-11T05:01:58.151Z,95272.22
2022-12-11T05:04:24.766Z,95266.13
2022-12-11T05:06:51.786Z,95269.56
2022-12-11T05:09:18.379Z,95269.69
2022-12-11T05:11:44.938Z,95268.34
2022-12-11T05:14:11.619Z,95273.59
2022-12-11T05:16:38.328Z,95277.88
2022-12-11T05:19:04.969Z,95274.53
2022-12-11T05:21:35.056Z,95272.00
2022-12-11T05:24:02.683Z,95268.69
2022-12-11T05:26:29.426Z,95284.47
2022-12-11T05:28:56.049Z,95286.84
2022-12-11T05:31:25.637Z,95285.09
2022-12-11T05:33:53.505Z,95277.38
2022-12-11T05:36:26.121Z,95274.19
2022-12-11T05:38:53.177Z,95281.16
2022-12-11T05:41:24.578Z,95276.09
2022-12-11T05:43:52.067Z,95284.44
2022-12-11T05:46:26.578Z,95283.06
2022-12-11T05:48:56.522Z,95291.81
2022-12-11T05:51:23.827Z,95283.47
2022-12-11T05:53:51.769Z,95283.13
2022-12-11T05:56:26.320Z,95297.25
2022-12-11T05:58:54.161Z,95286.84
2022-12-11T06:01:25.110Z,95284.50
2022-12-11T06:03:52.108Z,95280.97
2022-12-11T06:06:18.788Z,95275.88
2022-12-11T06:08:45.420Z,95276.78
2022-12-11T06:11:18.371Z,95289.63
2022-12-11T06:13:48.350Z,95292.53
2022-12-11T06:16:15.367Z,95285.53
2022-12-11T06:18:44.866Z,95279.75
2022-12-11T06:21:24.813Z,95280.97
2022-12-11T06:23:54.109Z,95284.25
2022-12-11T06:26:21.518Z,95285.34
2022-12-11T06:28:48.546Z,95294.00
2022-12-11T06:31:15.792Z,95286.44
2022-12-11T06:33:43.343Z,95292.69
2022-12-11T06:36:17.776Z,95284.59
2022-12-11T06:38:45.085Z,95309.03
2022-12-11T06:41:12.750Z,95302.34
2022-12-11T06:43:40.573Z,95299.63
2022-12-11T06:46:10.367Z,95300.25
2022-12-11T06:48:37.431Z,95300.50
2022-12-11T06:51:12.622Z,95297.69
2022-12-11T06:53:39.472Z,95299.88
2022-12-11T06:56:12.372Z,95305.22
2022-12-11T06:58:40.250Z,95308.09
2022-12-11T07:01:24.805Z,95310.91
2022-12-11T07:03:55.925Z,95309.94
2022-12-11T07:06:23.143Z,95304.25
2022-12-11T07:08:50.019Z,95314.94
2022-12-11T07:11:17.861Z,95314.06
2022-12-11T07:13:44.857Z,95308.44
2022-12-11T07:16:13.822Z,95308.59
2022-12-11T07:18:43.470Z,95320.13
2022-12-11T07:21:13.219Z,95313.81
2022-12-11T07:23:40.590Z,95317.38
2022-12-11T07:26:10.877Z,95323.16
2022-12-11T07:28:37.638Z,95321.25
2022-12-11T07:31:14.871Z,95322.28
2022-12-11T07:33:43.004Z,95321.13
2022-12-11T07:36:11.728Z,95328.00
2022-12-11T07:38:38.830Z,95315.25
2022-12-11T07:41:08.343Z,95316.03
2022-12-11T07:43:36.078Z,95322.09
2022-12-11T07:46:08.549Z,95320.47
2022-12-11T07:48:36.694Z,95322.72
2022-12-11T07:51:15.140Z,95329.47
2022-12-11T07:53:43.031Z,95332.91
2022-12-11T07:56:09.649Z,95324.13
2022-12-11T07:58:36.976Z,95333.41
2022-12-11T08:01:03.610Z,95337.75
2022-12-11T08:03:30.265Z,95342.34
2022-12-11T08:05:56.910Z,95339.53
2022-12-11T08:08:23.566Z,95332.66
2022-12-11T08:10:50.182Z,95339.53
2022-12-11T08:13:16.753Z,95344.00
2022-12-11T08:15:43.432Z,95347.22
2022-12-11T08:18:10.385Z,95345.19
2022-12-11T08:20:39.354Z,95347.88
2022-12-11T08:23:06.047Z,95354.22
2022-12-11T08:25:32.927Z,95349.84
2022-12-11T08:27:59.503Z,95347.94
2022-12-11T08:30:26.136Z,95349.59
2022-12-11T08:32:52.808Z,95362.69
2022-12-11T08:35:19.423Z,95351.19
2022-12-11T08:37:46.017Z,95354.38
2022-12-11T08:40:12.700Z,95352.41
2022-12-11T08:42:39.317Z,95361.38
2022-12-11T08:45:06.682Z,95353.97
2022-12-11T08:47:33.261Z,95352.97
2022-12-11T08:49:59.853Z,95355.19
2022-12-11T08:52:26.459Z,95365.03
2022-12-11T08:54:53.080Z,95357.25
2022-12-11T08:57:19.638Z,95360.59
2022-12-11T08:59:46.261Z,95356.63
2022-12-11T09:02:13.502Z,95360.78
2022-12-11T09:04:40.340Z,95359.88
2022-12-11T09:07:06.920Z,95362.19
2022-12-11T09:09:33.544Z,95360.25
2022-12-11T09:12:01.532Z,95355.81
2022-12-11T09:14:28.164Z,95354.44
2022-12-11T09:16:54.729Z,95353.63
2022-12-11T09:19:21.333Z,95360.06
2022-12-11T09:21:48.317Z,95359.59
2022-12-11T09:24:15.201Z,95361.13
2022-12-11T09:26:42.018Z,95360.47
2022-12-11T09:29:09.202Z,95355.34
2022-12-11T09:31:36.909Z,95351.84
2022-12-11T09:34:11.461Z,95361.47
2022-12-11T09:36:42.565Z,95355.94
2022-12-11T09:39:11.601Z,95352.50
2022-12-11T09:41:49.740Z,95354.34
2022-12-11T09:44:31.479Z,95354.47
2022-12-11T09:46:59.093Z,95356.78
2022-12-11T09:49:37.702Z,95356.19
2022-12-11T09:52:23.388Z,95350.47
2022-12-11T09:54:56.517Z,95356.28
2022-12-11T09:57:25.984Z,95344.47
2022-12-11T10:00:14.129Z,95348.72
2022-12-11T10:03:01.386Z,95345.22
2022-12-11T10:05:45.325Z,95344.81
2022-12-11T10:08:20.931Z,95334.50
2022-12-11T10:11:16.312Z,95333.69
2022-12-11T10:14:00.192Z,95330.63
2022-12-11T10:16:46.157Z,95326.00
2022-12-11T10:19:27.656Z,95313.56
2022-12-11T10:21:55.733Z,95314.31
2022-12-11T10:27:31.384Z,95305.28
2022-12-11T10:30:08.358Z,95303.78
2022-12-11T10:33:02.450Z,95301.31
2022-12-11T10:35:32.105Z,95306.66
2022-12-11T10:38:27.573Z,95304.53
2022-12-11T10:41:00.868Z,95302.72
2022-12-11T10:43:39.731Z,95306.00
2022-12-11T10:46:14.125Z,95300.41
2022-12-11T10:48:55.452Z,95301.97
2022-12-11T10:51:34.277Z,95296.50
2022-12-11T10:54:29.330Z,95292.91
2022-12-11T10:56:56.746Z,95290.16
2022-12-11T10:59:30.530Z,95283.50
2022-12-11T11:01:58.101Z,95281.69
2022-12-11T11:04:31.566Z,95280.59
2022-12-11T11:07:11.123Z,95279.50
2022-12-11T11:09:37.792Z,95275.22
2022-12-11T11:12:08.081Z,95272.00
2022-12-11T11:14:34.900Z,95276.88
2022-12-11T11:17:01.624Z,95273.94
2022-12-11T11:19:33.834Z,95267.88
2022-12-11T11:22:19.698Z,95271.88
2022-12-11T11:24:54.217Z,95260.91
2022-12-11T11:27:41.344Z,95261.19
2022-12-11T11:30:37.860Z,95262.19
2022-12-11T11:33:12.547Z,95265.47
2022-12-11T11:35:45.535Z,95267.41
2022-12-11T11:38:21.996Z,95253.50
2022-12-11T11:41:04.848Z,95249.47
2022-12-11T11:43:38.714Z,95254.50
2022-12-11T11:46:23.318Z,95248.44
2022-12-11T11:49:07.902Z,95253.03
2022-12-11T11:51:43.084Z,95248.81
2022-12-11T11:54:17.095Z,95247.25
2022-12-11T11:56:44.297Z,95245.16
2022-12-11T11:59:22.723Z,95246.44
2022-12-11T12:01:51.211Z,95244.97
2022-12-11T12:04:17.871Z,95245.53
2022-12-11T12:07:06.515Z,95244.53
2022-12-11T12:10:00.674Z,95244.91
2022-12-11T12:12:51.469Z,95248.41
2022-12-11T12:15:28.881Z,95238.13
2022-12-11T12:17:59.929Z,95237.56
2022-12-11T12:20:38.865Z,95237.63
2022-12-11T12:23:17.383Z,95233.16
2022-12-11T12:26:00.381Z,95238.56
2022-12-11T12:28:29.674Z,95248.44
2022-12-11T12:31:17.423Z,95244.69
2022-12-11T12:34:12.046Z,95238.06
2022-12-11T12:36:57.412Z,95237.09
2022-12-11T12:39:35.738Z,95238.16
2022-12-11T12:42:16.125Z,95240.81
2022-12-11T12:45:10.789Z,95233.28
2022-12-11T12:47:38.983Z,95232.44
2022-12-11T12:50:12.515Z,95237.03
2022-12-11T12:52:40.794Z,95239.69
2022-12-11T12:55:18.058Z,95232.50
2022-12-11T12:57:54.617Z,95231.81
2022-12-11T13:00:32.498Z,95218.06
2022-12-11T13:03:03.359Z,95217.53
2022-12-11T13:05:33.376Z,95211.72
2022-12-11T13:08:03.411Z,95223.94
2022-12-11T13:10:33.773Z,95213.91
2022-12-11T13:13:02.436Z,95225.59
2022-12-11T13:15:34.159Z,95224.44
2022-12-11T13:18:03.948Z,95217.94
2022-12-11T13:20:34.492Z,95226.44
2022-12-11T13:23:07.140Z,95227.16
2022-12-11T13:25:51.069Z,95226.41
2022-12-11T13:28:28.842Z,95229.19
2022-12-11T13:31:15.401Z,95229.66
2022-12-11T13:33:47.058Z,95227.22
2022-12-11T13:36:24.520Z,95238.91
2022-12-11T13:39:04.841Z,95234.41
2022-12-11T13:41:35.387Z,95234.59
2022-12-11T13:44:03.100Z,95237.56
2022-12-11T13:46:35.621Z,95236.16
2022-12-11T13:49:06.922Z,95232.22
2022-12-11T13:51:38.069Z,95230.47
2022-12-11T13:54:17.966Z,95238.78
2022-12-11T13:57:04.024Z,95237.88
2022-12-11T13:59:32.235Z,95235.50
2022-12-11T14:02:04.059Z,95230.56
2022-12-11T14:04:34.316Z,95226.91
2022-12-11T14:07:01.947Z,95225.34
2022-12-11T14:09:29.543Z,95227.94
2022-12-11T14:11:57.406Z,95224.69
2022-12-11T14:14:33.340Z,95233.66
2022-12-11T14:17:00.324Z,95234.59
2022-12-11T14:19:27.784Z,95228.50
2022-12-11T14:22:03.205Z,95229.13
2022-12-11T14:24:31.230Z,95236.78
2022-12-11T14:26:58.632Z,95231.97
2022-12-11T14:29:33.003Z,95238.53
2022-12-11T14:32:04.828Z,95231.41
2022-12-11T14:34:36.969Z,95230.38
2022-12-11T14:37:06.423Z,95233.63
2022-12-11T14:39:52.757Z,95234.06
2022-12-11T14:42:27.293Z,95237.53
2022-12-11T14:45:03.145Z,95236.56
2022-12-11T14:47:37.617Z,95231.88
2022-12-11T14:50:17.389Z,95238.47
2022-12-11T14:52:48.187Z,95237.97
2022-12-11T14:55:21.653Z,95245.25
2022-12-11T14:57:51.385Z,95242.56
2022-12-11T15:00:22.299Z,95245.53
2022-12-11T15:03:02.088Z,95239.31
2022-12-11T15:05:30.026Z,95241.97
2022-12-11T15:07:58.275Z,95230.03
2022-12-11T15:10:31.377Z,95241.88
2022-12-11T15:12:58.337Z,95243.09
2022-12-11T15:15:33.876Z,95245.47
2022-12-11T15:18:05.191Z,95250.38
2022-12-11T15:20:31.871Z,95248.28
2022-12-11T15:23:01.794Z,95249.78
2022-12-11T15:25:29.794Z,95249.75
2022-12-11T15:27:59.835Z,95247.00
2022-12-11T15:30:33.190Z,95250.16
2022-12-11T15:33:19.738Z,95259.72
2022-12-11T15:36:04.444Z,95259.09
2022-12-11T15:38:40.783Z,95263.69
2022-12-11T15:41:14.555Z,95262.34
2022-12-11T15:43:41.477Z,95255.47
2022-12-11T15:46:08.190Z,95252.00
2022-12-11T15:48:34.833Z,95260.88
2022-12-11T15:51:01.429Z,95260.63
2022-12-11T15:53:28.037Z,95265.41
2022-12-11T15:55:54.933Z,95262.84
2022-12-11T15:58:24.281Z,95271.41
2022-12-11T16:00:51.164Z,95273.63
2022-12-11T16:03:20.220Z,95269.53
2022-12-11T16:05:47.222Z,95274.13
2022-12-11T16:08:16.231Z,95274.59
2022-12-11T16:10:43.752Z,95266.69
2022-12-11T16:13:11.453Z,95268.63
2022-12-11T16:15:41.004Z,95276.53
2022-12-11T16:18:11.080Z,95270.31
2022-12-11T16:20:39.977Z,95266.06
2022-12-11T16:23:08.302Z,95267.84
2022-12-11T16:25:40.954Z,95277.22
2022-12-11T16:28:08.724Z,95273.69
2022-12-11T16:30:36.783Z,95276.75
2022-12-11T16:33:10.224Z,95277.56
2022-12-11T16:35:38.897Z,95279.94
2022-12-11T16:38:05.532Z,95272.56
2022-12-11T16:40:32.109Z,95276.13
2022-12-11T16:42:58.721Z,95282.03
2022-12-11T16:45:27.011Z,95288.03
2022-12-11T16:47:53.829Z,95282.50
2022-12-11T16:50:20.560Z,95284.81
2022-12-11T16:52:47.409Z,95278.06
2022-12-11T16:55:15.089Z,95291.16
2022-12-11T16:57:42.047Z,95281.75
2022-12-11T17:00:12.219Z,95287.69
2022-12-11T17:02:38.939Z,95279.78
2022-12-11T17:05:05.917Z,95277.81
2022-12-11T17:07:33.227Z,95282.72
2022-12-11T17:10:01.836Z,95284.00
2022-12-11T17:12:28.784Z,95279.56
2022-12-11T17:14:56.398Z,95279.97
2022-12-11T17:17:22.994Z,95282.69
2022-12-11T17:19:49.668Z,95284.13
2022-12-11T17:22:16.419Z,95286.34
2022-12-11T17:24:43.047Z,95279.16
2022-12-11T17:27:09.826Z,95293.00
2022-12-11T17:29:36.432Z,95292.13
2022-12-11T17:32:03.364Z,95289.75
2022-12-11T17:34:36.122Z,95283.41
2022-12-11T17:37:05.323Z,95290.56
2022-12-11T17:39:31.994Z,95290.09
2022-12-11T17:41:58.556Z,95299.66
2022-12-11T17:44:26.759Z,95290.75
2022-12-11T17:46:53.742Z,95299.16
2022-12-11T17:49:20.460Z,95288.72
2022-12-11T17:51:48.045Z,95288.53
2022-12-11T17:54:15.036Z,95292.09
2022-12-11T17:56:41.798Z,95297.25
2022-12-11T17:59:08.466Z,95305.41
2022-12-11T18:01:35.236Z,95299.84
2022-12-11T18:04:02.423Z,95301.84
2022-12-11T18:06:29.959Z,95305.38
2022-12-11T18:08:57.605Z,95305.56
2022-12-11T18:11:24.409Z,95315.19
2022-12-11T18:13:52.822Z,95316.91
2022-12-11T18:16:29.467Z,95316.53
2022-12-11T18:18:56.617Z,95323.50
2022-12-11T18:21:29.049Z,95318.59
2022-12-11T18:23:56.475Z,95328.44
2022-12-11T18:26:23.466Z,95319.97
2022-12-11T18:28:51.059Z,95332.50
2022-12-11T18:31:18.759Z,95336.25
2022-12-11T18:33:46.612Z,95337.53
2022-12-11T18:36:15.364Z,95338.31
2022-12-11T18:38:42.314Z,95341.19
2022-12-11T18:41:10.797Z,95345.28
2022-12-11T18:43:37.845Z,95346.69
2022-12-11T18:46:14.259Z,95340.00
2022-12-11T18:48:42.377Z,95338.00
2022-12-11T18:51:12.493Z,95349.78
2022-12-11T18:53:39.945Z,95345.50
2022-12-11T18:56:13.254Z,95353.50
2022-12-11T18:58:40.307Z,95353.34
2022-12-11T19:01:33.146Z,95347.16
2022-12-11T19:04:04.530Z,95343.56
2022-12-11T19:06:35.628Z,95334.50
2022-12-11T19:09:03.826Z,95336.03
2022-12-11T19:11:31.797Z,95343.59
2022-12-11T19:13:59.038Z,95341.53
2022-12-11T19:16:33.598Z,95337.88
2022-12-11T19:19:07.068Z,95334.50
2022-12-11T19:21:35.477Z,95327.78
2022-12-11T19:24:02.181Z,95336.38
2022-12-11T19:26:28.928Z,95331.41
2022-12-11T19:28:59.983Z,95327.31
2022-12-11T19:31:29.029Z,95319.06
2022-12-11T19:33:56.723Z,95316.47
2022-12-11T19:36:26.015Z,95324.19
2022-12-11T19:38:59.300Z,95323.75
2022-12-11T19:41:28.880Z,95321.13
2022-12-11T19:43:57.473Z,95315.91
2022-12-11T19:46:25.005Z,95318.41
2022-12-11T19:48:54.189Z,95317.75
2022-12-11T19:51:23.913Z,95319.06
2022-12-11T19:53:51.350Z,95331.00
2022-12-11T19:56:18.819Z,95315.78
2022-12-11T19:58:45.664Z,95323.03
2022-12-11T20:01:25.845Z,95321.72
2022-12-11T20:03:53.572Z,95320.41
2022-12-11T20:06:20.260Z,95319.41
2022-12-11T20:08:47.333Z,95318.22
2022-12-11T20:11:18.354Z,95320.88
2022-12-11T20:13:47.014Z,95314.78
2022-12-11T20:16:14.373Z,95315.88
2022-12-11T20:18:41.737Z,95322.81
2022-12-11T20:21:14.375Z,95318.19
2022-12-11T20:23:41.424Z,95316.72
2022-12-11T20:26:19.865Z,95315.44
2022-12-11T20:28:50.197Z,95313.53
2022-12-11T20:31:20.818Z,95307.34
2022-12-11T20:33:49.255Z,95300.97
2022-12-11T20:36:18.318Z,95301.84
2022-12-11T20:38:45.265Z,95293.19
2022-12-11T20:41:15.010Z,95294.06
2022-12-11T20:43:42.293Z,95289.91
2022-12-11T20:46:11.834Z,95295.78
2022-12-11T20:48:39.901Z,95289.00
2022-12-11T20:51:08.247Z,95290.88
2022-12-11T20:53:36.082Z,95294.28
2022-12-11T20:56:08.355Z,95295.28
2022-12-11T20:58:34.910Z,95298.78
2022-12-11T21:01:01.906Z,95298.97
2022-12-11T21:03:28.580Z,95296.78
2022-12-11T21:05:55.282Z,95296.28
2022-12-11T21:08:21.938Z,95292.56
2022-12-11T21:10:48.666Z,95284.50
2022-12-11T21:13:16.742Z,95297.16
2022-12-11T21:15:43.513Z,95293.50
2022-12-11T21:18:10.194Z,95294.91
2022-12-11T21:20:36.747Z,95302.47
2022-12-11T21:23:03.936Z,95298.69
2022-12-11T21:25:30.573Z,95303.25
2022-12-11T21:27:57.149Z,95303.75
2022-12-11T21:30:23.761Z,95295.97
2022-12-11T21:32:50.351Z,95303.66
2022-12-11T21:35:17.062Z,95303.72
2022-12-11T21:37:43.733Z,95298.47
2022-12-11T21:40:10.721Z,95298.88
2022-12-11T21:42:37.297Z,95292.84
2022-12-11T21:47:50.973Z,95300.00
2022-12-11T21:50:18.133Z,95299.66
2022-12-11T21:52:44.743Z,95301.47
2022-12-11T21:55:12.785Z,95294.09
2022-12-11T21:57:39.656Z,95299.88
2022-12-11T22:00:06.785Z,95302.47
2022-12-11T22:02:37.553Z,95305.78
2022-12-11T22:05:07.692Z,95307.88
2022-12-11T22:07:34.287Z,95296.47
2022-12-11T22:10:02.204Z,95314.53
2022-12-11T22:12:29.577Z,95308.88
2022-12-11T22:14:56.437Z,95309.75
2022-12-11T22:17:23.217Z,95316.47
2022-12-11T22:19:52.035Z,95309.38
2022-12-11T22:22:19.322Z,95310.00
2022-12-11T22:24:46.095Z,95318.69
2022-12-11T22:27:12.693Z,95318.31
2022-12-11T22:29:39.314Z,95326.16
2022-12-11T22:32:05.913Z,95312.28
2022-12-11T22:34:32.500Z,95313.53
2022-12-11T22:36:59.064Z,95309.91
2022-12-11T22:39:25.684Z,95310.59
2022-12-11T22:41:52.326Z,95307.47
2022-12-11T22:44:21.390Z,95311.38
2022-12-11T22:46:50.436Z,95318.47
2022-12-11T22:49:18.772Z,95318.59
2022-12-11T22:51:45.470Z,95319.44
2022-12-11T22:54:12.254Z,95321.03
2022-12-11T22:56:38.988Z,95316.97
2022-12-11T22:59:07.524Z,95315.88
2022-12-11T23:01:34.463Z,95314.56
2022-12-11T23:04:01.066Z,95312.31
2022-12-11T23:06:27.691Z,95317.91
2022-12-11T23:08:58.730Z,95314.97
2022-12-11T23:11:29.418Z,95313.09
2022-12-11T23:13:56.703Z,95312.88
2022-12-11T23:16:25.845Z,95305.28
2022-12-11T23:18:53.697Z,95306.44
2022-12-11T23:21:21.782Z,95310.69
2022-12-11T23:23:48.850Z,95317.13
2022-12-11T23:26:15.990Z,95317.81
2022-12-11T23:28:42.565Z,95328.78
2022-12-11T23:31:09.322Z,95333.22
2022-12-11T23:33:36.792Z,95340.56
2022-12-11T23:36:04.498Z,95339.59
2022-12-11T23:38:31.129Z,95343.16
2022-12-11T23:41:00.246Z,95340.59
2022-12-11T23:43:26.949Z,95343.31
2022-12-11T23:45:54.136Z,95347.06
2022-12-11T23:48:21.225Z,95345.03
2022-12-11T23:50:48.209Z,95340.94
2022-12-11T23:53:15.279Z,95347.34
2022-12-11T23:55:44.838Z,95347.03
2022-12-11T23:58:11.987Z,95349.13
